CheckWX is a tool to help pilots better visualize weather data.  It is not intended as a substitute for an official pre-flight weather briefing.

08:39:22 UTC

FKKD METAR
Douala International Airport
Douala, Cameroon
Current

39 mins ago

FKKD 120800Z VRB02KT 6000 BKN013 FEW016CB 27/26 Q1012 NOSIG
Observed
Dec-12 @ 08:00 UTC
Wind
  • Variable at 2 KTS
Visibility
6,000 meters
Flight Rules
MVFR
Cloud Levels
  • Broken at 1,300' AGL
  • Few at 1,600' AGL
Temperature
27°C / 81°F
Dewpoint
26°C / 79°F
Heat Index
32°C / 89°F
Humidity
94%
Altimeter
29.88" Hg
Pressure
1011.92 hPa
Previous

2 hours ago

FKKD 120700Z 00000KT 2000 BR SCT013 FEW016CB 26/25 Q1011 BECMG 4000 BR
Observed
Dec-12 @ 07:00 UTC
Visibility
2,000 meters
Flight Rules
IFR
Conditions
Mist
Cloud Levels
  • Scattered at 1,300' AGL
  • Few at 1,600' AGL
Temperature
26°C / 79°F
Dewpoint
25°C / 77°F
Humidity
94%
Altimeter
29.85" Hg
Pressure
1010.92 hPa
Previous

3 hours ago

FKKD 120600Z 00000KT 2000 BR SCT013 FEW016CB 25/24 Q1011 RETS BECMG 4000 BR
Observed
Dec-12 @ 06:00 UTC
Visibility
2,000 meters
Flight Rules
IFR
Conditions
Mist
Cloud Levels
  • Scattered at 1,300' AGL
  • Few at 1,600' AGL
Temperature
25°C / 77°F
Dewpoint
24°C / 75°F
Humidity
94%
Altimeter
29.85" Hg
Pressure
1010.92 hPa